createdAt,value
2018-06-09T00:04:05.089Z,97.00
2018-06-09T00:06:33.516Z,97.00
2018-06-09T00:09:01.967Z,97.00
2018-06-09T00:11:30.576Z,97.00
2018-06-09T00:13:59.484Z,97.00
2018-06-09T00:16:27.955Z,97.00
2018-06-09T00:18:57.046Z,97.00
2018-06-09T00:21:25.485Z,97.00
2018-06-09T00:23:53.911Z,97.00
2018-06-09T00:26:22.341Z,97.00
2018-06-09T00:28:50.784Z,97.00
2018-06-09T00:31:19.213Z,97.00
2018-06-09T00:33:47.680Z,97.00
2018-06-09T00:38:44.241Z,97.00
2018-06-09T00:41:12.670Z,97.00
2018-06-09T00:43:41.053Z,97.00
2018-06-09T00:46:09.455Z,97.00
2018-06-09T00:51:05.936Z,97.00
2018-06-09T00:53:34.367Z,97.00
2018-06-09T00:56:13.882Z,97.00
2018-06-09T00:58:42.281Z,97.00
2018-06-09T01:01:10.754Z,97.00
2018-06-09T01:03:39.160Z,97.00
2018-06-09T01:06:07.600Z,97.00
2018-06-09T01:08:36.007Z,97.00
2018-06-09T01:11:04.405Z,97.00
2018-06-09T01:13:32.844Z,97.00
2018-06-09T01:16:01.258Z,97.00
2018-06-09T01:18:29.685Z,97.00
2018-06-09T01:20:58.150Z,97.00
2018-06-09T01:23:26.562Z,97.00
2018-06-09T01:25:54.967Z,97.00
2018-06-09T01:28:23.420Z,97.00
2018-06-09T01:30:51.848Z,97.00
2018-06-09T01:33:20.281Z,97.00
2018-06-09T01:35:48.703Z,97.00
2018-06-09T01:38:17.100Z,97.00
2018-06-09T01:40:45.493Z,97.00
2018-06-09T01:43:13.885Z,97.00
2018-06-09T01:45:42.272Z,97.00
2018-06-09T01:48:10.675Z,97.00
2018-06-09T01:50:39.049Z,97.00
2018-06-09T01:53:07.429Z,97.00
2018-06-09T01:55:35.867Z,97.00
2018-06-09T01:58:04.295Z,97.00
2018-06-09T02:00:32.722Z,97.00
2018-06-09T02:03:01.201Z,97.00
2018-06-09T02:05:29.628Z,97.00
2018-06-09T02:07:58.033Z,97.00
2018-06-09T02:10:26.488Z,97.00
2018-06-09T02:12:54.896Z,97.00
2018-06-09T02:15:23.390Z,97.00
2018-06-09T02:17:51.964Z,97.00
2018-06-09T02:20:20.408Z,97.00
2018-06-09T02:22:48.841Z,97.00
2018-06-09T02:25:17.296Z,97.00
2018-06-09T02:27:47.633Z,97.00
2018-06-09T02:30:16.042Z,97.00
2018-06-09T02:32:44.466Z,97.00
2018-06-09T02:35:12.860Z,97.00
2018-06-09T02:37:41.295Z,97.00
2018-06-09T02:40:09.694Z,97.00
2018-06-09T02:42:38.105Z,97.00
2018-06-09T02:45:06.542Z,97.00
2018-06-09T02:47:34.930Z,97.00
2018-06-09T02:50:03.423Z,97.00
2018-06-09T02:52:31.829Z,97.00
2018-06-09T02:55:00.275Z,97.00
2018-06-09T02:57:28.745Z,97.00
2018-06-09T02:59:57.152Z,97.00
2018-06-09T03:02:25.576Z,97.00
2018-06-09T03:04:53.981Z,97.00
2018-06-09T03:07:22.427Z,97.00
2018-06-09T03:09:50.847Z,97.00
2018-06-09T03:12:19.316Z,97.00
2018-06-09T03:14:47.729Z,97.00
2018-06-09T03:17:16.131Z,97.00
2018-06-09T03:19:44.583Z,97.00
2018-06-09T03:22:12.976Z,97.00
2018-06-09T03:24:41.385Z,97.00
2018-06-09T03:27:09.808Z,97.00
2018-06-09T03:29:38.219Z,97.00
2018-06-09T03:32:06.630Z,97.00
2018-06-09T03:34:35.064Z,97.00
2018-06-09T03:37:03.480Z,97.00
2018-06-09T03:39:31.846Z,97.00
2018-06-09T03:42:00.278Z,97.00
2018-06-09T03:44:28.719Z,97.00
2018-06-09T03:46:57.109Z,97.00
2018-06-09T03:49:25.536Z,97.00
2018-06-09T03:51:53.930Z,97.00
2018-06-09T03:54:22.349Z,97.00
2018-06-09T03:56:50.816Z,97.00
2018-06-09T03:59:19.227Z,97.00
2018-06-09T04:01:47.597Z,97.00
2018-06-09T04:04:15.976Z,97.00
2018-06-09T04:06:44.400Z,97.00
2018-06-09T04:09:12.809Z,97.00
2018-06-09T04:11:41.235Z,97.00
2018-06-09T04:14:13.954Z,97.00
2018-06-09T04:16:45.612Z,97.00
2018-06-09T04:19:16.091Z,97.00
2018-06-09T04:21:44.611Z,97.00
2018-06-09T04:24:13.128Z,97.00
2018-06-09T04:26:41.592Z,97.00
2018-06-09T04:29:10.189Z,97.00
2018-06-09T04:31:39.317Z,97.00
2018-06-09T04:36:36.020Z,97.00
2018-06-09T04:39:06.991Z,97.00
2018-06-09T04:44:03.618Z,97.00
2018-06-09T04:46:32.001Z,97.00
2018-06-09T04:49:00.525Z,97.00
2018-06-09T04:51:28.901Z,97.00
2018-06-09T04:53:57.302Z,97.00
2018-06-09T04:56:25.705Z,97.00
2018-06-09T04:58:54.122Z,97.00
2018-06-09T05:01:22.599Z,97.00
2018-06-09T05:03:51.131Z,97.00
2018-06-09T05:06:19.567Z,97.00
2018-06-09T05:08:48.030Z,97.00
2018-06-09T05:11:16.422Z,97.00
2018-06-09T05:13:44.883Z,97.00
2018-06-09T05:16:13.383Z,97.00
2018-06-09T05:18:42.170Z,97.00
2018-06-09T05:21:10.771Z,97.00
2018-06-09T05:23:40.367Z,97.00
2018-06-09T05:26:08.923Z,97.00
2018-06-09T05:28:37.350Z,97.00
2018-06-09T05:31:05.825Z,97.00
2018-06-09T05:33:34.234Z,97.00
2018-06-09T05:36:02.691Z,97.00
2018-06-09T05:38:31.268Z,97.00
2018-06-09T05:40:59.786Z,96.90
2018-06-09T05:43:28.269Z,96.60
2018-06-09T05:45:56.694Z,96.50
2018-06-09T05:50:53.241Z,95.90
2018-06-09T05:53:21.686Z,95.10
2018-06-09T05:55:50.165Z,94.20
2018-06-09T05:58:18.662Z,93.60
2018-06-09T06:00:47.106Z,93.40
2018-06-09T06:03:15.584Z,93.20
2018-06-09T06:05:44.162Z,93.00
2018-06-09T06:08:12.738Z,92.60
2018-06-09T06:10:41.220Z,92.60
2018-06-09T06:13:09.659Z,93.20
2018-06-09T06:15:38.061Z,94.10
2018-06-09T06:18:06.625Z,93.70
2018-06-09T06:20:35.256Z,94.10
2018-06-09T06:23:03.713Z,93.60
2018-06-09T06:25:32.151Z,93.90
2018-06-09T06:28:00.574Z,94.00
2018-06-09T06:30:29.062Z,94.30
2018-06-09T06:32:57.476Z,94.10
2018-06-09T06:35:25.909Z,93.60
2018-06-09T06:37:54.353Z,93.50
2018-06-09T06:40:22.803Z,92.80
2018-06-09T06:42:51.297Z,91.80
2018-06-09T06:45:19.782Z,90.80
2018-06-09T06:47:48.589Z,90.30
2018-06-09T06:50:16.987Z,89.50
2018-06-09T06:52:45.527Z,88.80
2018-06-09T06:55:14.060Z,88.90
2018-06-09T06:57:42.460Z,88.20
2018-06-09T07:00:10.989Z,88.10
2018-06-09T07:02:39.401Z,87.90
2018-06-09T07:05:07.762Z,88.00
2018-06-09T07:07:36.207Z,89.50
2018-06-09T07:10:04.603Z,88.80
2018-06-09T07:12:33.032Z,88.40
2018-06-09T07:15:01.386Z,88.70
2018-06-09T07:17:29.797Z,87.90
2018-06-09T07:19:58.188Z,87.70
2018-06-09T07:22:26.608Z,87.90
2018-06-09T07:24:55.052Z,88.00
2018-06-09T07:27:23.493Z,88.20
2018-06-09T07:29:51.899Z,88.30
2018-06-09T07:32:20.323Z,88.50
2018-06-09T07:34:48.689Z,88.50
2018-06-09T07:37:17.085Z,88.60
2018-06-09T07:39:45.525Z,88.80
2018-06-09T07:42:13.925Z,88.70
2018-06-09T07:44:42.367Z,88.90
2018-06-09T07:47:10.830Z,89.10
2018-06-09T07:49:39.212Z,88.60
2018-06-09T07:52:07.655Z,88.70
2018-06-09T07:54:36.117Z,89.10
2018-06-09T07:57:04.523Z,88.50
2018-06-09T07:59:33.004Z,88.80
2018-06-09T08:02:01.386Z,88.80
2018-06-09T08:04:33.689Z,88.20
2018-06-09T08:07:06.145Z,88.10
2018-06-09T08:09:40.006Z,88.00
2018-06-09T08:12:11.797Z,88.10
2018-06-09T08:14:43.822Z,88.40
2018-06-09T08:17:16.194Z,88.10
2018-06-09T08:19:47.849Z,86.40
2018-06-09T08:22:20.730Z,85.90
2018-06-09T08:24:49.277Z,84.60
2018-06-09T08:27:17.641Z,82.80
2018-06-09T08:29:46.180Z,81.60
2018-06-09T08:32:14.605Z,81.10
2018-06-09T08:34:43.116Z,80.10
2018-06-09T08:37:11.489Z,80.00
2018-06-09T08:39:39.892Z,79.90
2018-06-09T08:42:08.374Z,79.50
2018-06-09T08:44:36.776Z,78.60
2018-06-09T08:47:05.198Z,79.00
2018-06-09T08:49:33.576Z,79.50
2018-06-09T08:52:02.132Z,79.10
2018-06-09T08:54:30.591Z,78.20
2018-06-09T08:56:58.973Z,78.60
2018-06-09T08:59:27.917Z,78.60
2018-06-09T09:01:56.353Z,78.50
2018-06-09T09:04:24.841Z,77.00
2018-06-09T09:06:53.227Z,77.70
2018-06-09T09:09:21.784Z,76.40
2018-06-09T09:11:50.237Z,75.90
2018-06-09T09:14:19.018Z,75.60
2018-06-09T09:16:48.705Z,75.90
2018-06-09T09:19:21.072Z,75.50
2018-06-09T09:21:49.501Z,76.60
2018-06-09T09:24:17.933Z,76.50
2018-06-09T09:26:46.357Z,76.60
2018-06-09T09:29:14.770Z,76.70
2018-06-09T09:31:43.245Z,77.10
2018-06-09T09:34:11.668Z,76.30
2018-06-09T09:36:40.108Z,75.50
2018-06-09T09:39:09.054Z,75.40
2018-06-09T09:41:37.513Z,74.10
2018-06-09T09:44:07.608Z,74.20
2018-06-09T09:46:36.057Z,74.60
2018-06-09T09:49:04.984Z,75.20
2018-06-09T09:51:33.493Z,74.50
2018-06-09T09:54:01.923Z,75.10
2018-06-09T09:56:30.389Z,74.90
2018-06-09T09:58:58.859Z,74.50
2018-06-09T10:01:27.289Z,74.60
2018-06-09T10:03:55.745Z,73.90
2018-06-09T10:06:24.763Z,73.60
2018-06-09T10:08:53.161Z,73.30
2018-06-09T10:11:22.574Z,72.80
2018-06-09T10:13:51.123Z,72.90
2018-06-09T10:16:19.543Z,72.90
2018-06-09T10:18:48.220Z,73.70
2018-06-09T10:21:16.686Z,73.50
2018-06-09T10:23:45.203Z,73.40
2018-06-09T10:26:13.608Z,72.00
2018-06-09T10:28:42.067Z,71.50
2018-06-09T10:31:10.600Z,72.10
2018-06-09T10:33:39.041Z,72.10
2018-06-09T10:36:07.575Z,72.20
2018-06-09T10:38:37.215Z,71.00
2018-06-09T10:41:05.636Z,71.50
2018-06-09T10:43:34.089Z,71.60
2018-06-09T10:46:02.503Z,71.00
2018-06-09T10:48:31.977Z,71.70
2018-06-09T10:51:00.508Z,70.70
2018-06-09T10:53:28.944Z,72.50
2018-06-09T10:55:57.400Z,72.10
2018-06-09T10:58:25.832Z,71.90
2018-06-09T11:00:54.325Z,71.40
2018-06-09T11:03:22.765Z,70.70
2018-06-09T11:05:51.282Z,72.10
2018-06-09T11:08:19.797Z,71.10
2018-06-09T11:13:16.451Z,70.70
2018-06-09T11:15:44.976Z,70.70
2018-06-09T11:18:13.397Z,70.40
2018-06-09T11:20:41.887Z,70.60
2018-06-09T11:23:10.325Z,70.90
2018-06-09T11:25:38.765Z,71.90
2018-06-09T11:28:07.160Z,70.60
2018-06-09T11:30:36.785Z,71.60
2018-06-09T11:33:05.304Z,70.10
2018-06-09T11:35:33.775Z,69.50
2018-06-09T11:38:02.290Z,69.70
2018-06-09T11:40:30.888Z,69.40
2018-06-09T11:42:59.368Z,69.40
2018-06-09T11:45:27.757Z,70.10
2018-06-09T11:47:56.237Z,69.00
2018-06-09T11:50:24.696Z,69.10
2018-06-09T11:52:53.233Z,69.70
2018-06-09T11:55:21.677Z,70.50
2018-06-09T11:57:50.288Z,70.80
2018-06-09T12:00:18.733Z,70.30
2018-06-09T12:02:47.155Z,68.70
2018-06-09T12:05:15.725Z,65.30
2018-06-09T12:07:44.145Z,65.30
2018-06-09T12:10:12.672Z,64.60
2018-06-09T12:12:41.112Z,66.10
2018-06-09T12:15:09.491Z,65.50
2018-06-09T12:17:37.919Z,64.90
2018-06-09T12:20:06.489Z,66.10
2018-06-09T12:22:35.028Z,66.10
2018-06-09T12:25:03.564Z,64.80
2018-06-09T12:27:31.985Z,64.80
2018-06-09T12:30:00.479Z,64.20
2018-06-09T12:32:29.047Z,64.20
2018-06-09T12:34:57.430Z,65.90
2018-06-09T12:37:25.890Z,65.40
2018-06-09T12:39:54.372Z,65.30
2018-06-09T12:42:22.808Z,65.40
2018-06-09T12:45:02.710Z,64.50
2018-06-09T12:47:32.360Z,64.00
2018-06-09T12:50:00.928Z,65.70
2018-06-09T12:52:29.422Z,66.30
2018-06-09T12:54:57.873Z,67.10
2018-06-09T12:57:26.380Z,65.90
2018-06-09T12:59:54.883Z,63.90
2018-06-09T13:02:23.339Z,65.20
2018-06-09T13:04:51.844Z,64.20
2018-06-09T13:07:20.299Z,64.00
2018-06-09T13:09:48.713Z,64.50
2018-06-09T13:12:17.095Z,62.30
2018-06-09T13:14:45.531Z,63.10
2018-06-09T13:17:13.953Z,64.20
2018-06-09T13:19:42.452Z,64.60
2018-06-09T13:22:10.897Z,63.80
2018-06-09T13:24:39.327Z,62.70
2018-06-09T13:27:07.724Z,62.90
2018-06-09T13:29:36.121Z,62.60
2018-06-09T13:32:04.625Z,62.80
2018-06-09T13:34:33.032Z,62.50
2018-06-09T13:37:01.432Z,62.80
2018-06-09T13:39:29.826Z,63.00
2018-06-09T13:41:58.209Z,63.70
2018-06-09T13:44:26.619Z,63.30
2018-06-09T13:46:55.176Z,62.90
2018-06-09T13:49:23.529Z,61.80
2018-06-09T13:51:51.936Z,61.30
2018-06-09T13:54:20.361Z,61.90
2018-06-09T13:56:48.831Z,61.80
2018-06-09T13:59:18.181Z,60.90
2018-06-09T14:01:46.607Z,60.50
2018-06-09T14:04:15.057Z,61.00
2018-06-09T14:06:43.502Z,60.30
2018-06-09T14:09:11.885Z,60.90
2018-06-09T14:11:40.328Z,60.30
2018-06-09T14:16:36.984Z,59.90
2018-06-09T14:21:33.771Z,61.30
2018-06-09T14:24:02.223Z,59.80
2018-06-09T14:26:30.638Z,59.50
2018-06-09T14:28:59.110Z,60.40
2018-06-09T14:31:27.584Z,61.00
2018-06-09T14:33:56.245Z,61.60
2018-06-09T14:36:24.673Z,61.00
2018-06-09T14:38:53.809Z,60.60
2018-06-09T14:41:22.185Z,59.60
2018-06-09T14:43:50.647Z,60.70
2018-06-09T14:46:19.073Z,60.40
2018-06-09T14:48:47.647Z,60.80
2018-06-09T14:51:16.145Z,59.40
2018-06-09T14:53:44.604Z,59.70
2018-06-09T14:56:13.116Z,59.40
2018-06-09T14:58:41.498Z,59.00
2018-06-09T15:01:09.966Z,59.00
2018-06-09T15:03:38.549Z,58.10
2018-06-09T15:06:06.948Z,58.20
2018-06-09T15:08:35.414Z,59.00
2018-06-09T15:11:03.829Z,58.80
2018-06-09T15:13:32.314Z,57.50
2018-06-09T15:16:00.786Z,58.30
2018-06-09T15:18:29.221Z,58.30
2018-06-09T15:20:57.641Z,57.50
2018-06-09T15:23:26.306Z,57.50
2018-06-09T15:25:55.190Z,58.20
2018-06-09T15:28:23.756Z,57.40
2018-06-09T15:30:52.563Z,57.60
2018-06-09T15:33:21.143Z,58.60
2018-06-09T15:35:49.575Z,59.20
2018-06-09T15:38:18.010Z,59.50
2018-06-09T15:40:46.749Z,60.30
2018-06-09T15:43:15.796Z,61.20
2018-06-09T15:45:44.558Z,62.20
2018-06-09T15:48:13.001Z,61.80
2018-06-09T15:50:41.405Z,61.20
2018-06-09T15:53:09.794Z,61.70
2018-06-09T15:55:38.346Z,61.60
2018-06-09T15:58:06.757Z,61.80
2018-06-09T16:00:35.156Z,61.40
2018-06-09T16:03:03.540Z,61.80
2018-06-09T16:05:31.901Z,62.20
2018-06-09T16:08:00.297Z,61.80
2018-06-09T16:10:28.802Z,62.00
2018-06-09T16:12:57.217Z,61.00
2018-06-09T16:15:25.586Z,59.60
2018-06-09T16:17:54.018Z,59.30
2018-06-09T16:20:22.457Z,59.50
2018-06-09T16:22:50.999Z,59.70
2018-06-09T16:25:19.422Z,59.40
2018-06-09T16:27:47.983Z,59.60
2018-06-09T16:30:16.430Z,60.10
2018-06-09T16:32:44.927Z,59.90
2018-06-09T16:35:13.339Z,59.70
2018-06-09T16:37:41.892Z,59.90
2018-06-09T16:40:10.317Z,60.40
2018-06-09T16:42:39.784Z,60.60
2018-06-09T16:45:08.209Z,60.50
2018-06-09T16:47:36.651Z,60.80
2018-06-09T16:50:05.588Z,61.90
2018-06-09T16:52:34.104Z,62.10
2018-06-09T16:55:02.512Z,62.70
2018-06-09T16:57:30.978Z,62.10
2018-06-09T16:59:59.370Z,62.20
2018-06-09T17:02:27.776Z,62.00
2018-06-09T17:04:56.205Z,62.00
2018-06-09T17:07:24.587Z,61.80
2018-06-09T17:09:52.995Z,61.40
2018-06-09T17:12:21.435Z,61.50
2018-06-09T17:14:49.793Z,60.60
2018-06-09T17:17:18.197Z,60.40
2018-06-09T17:19:46.616Z,59.80
2018-06-09T17:22:15.033Z,60.00
2018-06-09T17:24:43.469Z,60.70
2018-06-09T17:27:11.895Z,60.00
2018-06-09T17:29:40.298Z,59.90
2018-06-09T17:32:08.688Z,59.70
2018-06-09T17:34:37.172Z,59.20
2018-06-09T17:37:05.637Z,59.40
2018-06-09T17:39:34.051Z,60.20
2018-06-09T17:42:03.000Z,62.40
2018-06-09T17:44:31.445Z,64.10
2018-06-09T17:46:59.869Z,65.20
2018-06-09T17:49:28.309Z,65.30
2018-06-09T17:51:56.721Z,66.00
2018-06-09T17:56:53.262Z,67.50
2018-06-09T17:59:21.684Z,67.80
2018-06-09T18:01:50.291Z,69.10
2018-06-09T18:04:18.726Z,69.80
2018-06-09T18:06:47.097Z,69.70
2018-06-09T18:09:15.541Z,70.00
2018-06-09T18:11:44.568Z,69.60
2018-06-09T18:14:12.969Z,70.20
2018-06-09T18:16:41.422Z,71.10
2018-06-09T18:19:09.844Z,71.10
2018-06-09T18:21:38.311Z,71.10
2018-06-09T18:24:06.716Z,71.00
2018-06-09T18:26:35.200Z,71.50
2018-06-09T18:29:03.607Z,71.90
2018-06-09T18:31:32.404Z,72.00
2018-06-09T18:36:28.967Z,71.80
2018-06-09T18:38:57.405Z,72.00
2018-06-09T18:41:25.870Z,71.80
2018-06-09T18:43:54.248Z,72.10
2018-06-09T18:46:22.734Z,72.20
2018-06-09T18:48:51.189Z,71.90
2018-06-09T18:51:19.845Z,72.50
2018-06-09T18:53:49.014Z,72.20
2018-06-09T18:56:17.451Z,72.40
2018-06-09T18:58:45.993Z,72.40
2018-06-09T19:01:14.373Z,72.00
2018-06-09T19:03:42.857Z,72.50
2018-06-09T19:06:11.337Z,73.20
2018-06-09T19:11:07.984Z,73.10
2018-06-09T19:13:36.361Z,73.80
2018-06-09T19:16:04.859Z,74.60
2018-06-09T19:18:33.226Z,75.20
2018-06-09T19:21:01.631Z,75.70
2018-06-09T19:23:30.082Z,76.00
2018-06-09T19:28:26.673Z,77.80
2018-06-09T19:30:55.085Z,77.60
2018-06-09T19:33:23.600Z,78.10
2018-06-09T19:35:52.215Z,78.50
2018-06-09T19:38:20.606Z,78.80
2018-06-09T19:40:49.003Z,78.80
2018-06-09T19:43:17.453Z,78.70
2018-06-09T19:45:45.977Z,79.00
2018-06-09T19:48:14.367Z,79.10
2018-06-09T19:50:42.838Z,79.00
2018-06-09T19:53:11.285Z,79.30
2018-06-09T19:55:39.735Z,79.50
2018-06-09T19:58:08.250Z,79.30
2018-06-09T20:00:36.667Z,79.60
2018-06-09T20:03:05.339Z,79.80
2018-06-09T20:05:33.997Z,79.30
2018-06-09T20:08:02.583Z,79.30
2018-06-09T20:10:31.034Z,79.50
2018-06-09T20:12:59.476Z,79.70
2018-06-09T20:15:27.882Z,79.50
2018-06-09T20:20:24.543Z,79.50
2018-06-09T20:22:53.052Z,79.60
2018-06-09T20:25:21.529Z,79.60
2018-06-09T20:27:50.048Z,79.80
2018-06-09T20:32:46.643Z,80.40
2018-06-09T20:35:15.165Z,80.60
2018-06-09T20:37:43.602Z,80.80
2018-06-09T20:40:12.867Z,81.00
2018-06-09T20:42:41.338Z,81.30
2018-06-09T20:45:09.715Z,81.70
2018-06-09T20:47:38.117Z,81.60
2018-06-09T20:50:06.567Z,82.10
2018-06-09T20:52:34.965Z,82.20
2018-06-09T20:55:03.648Z,82.40
2018-06-09T20:57:32.106Z,82.60
2018-06-09T21:00:00.708Z,83.00
2018-06-09T21:02:29.287Z,83.30
2018-06-09T21:04:57.726Z,83.70
2018-06-09T21:07:29.351Z,84.00
2018-06-09T21:09:57.753Z,84.10
2018-06-09T21:12:26.144Z,84.30
2018-06-09T21:14:54.548Z,84.30
2018-06-09T21:17:22.967Z,84.40
2018-06-09T21:19:51.394Z,84.50
2018-06-09T21:22:19.797Z,84.80
2018-06-09T21:24:48.239Z,84.60
2018-06-09T21:27:21.903Z,84.90
2018-06-09T21:29:50.421Z,85.00
2018-06-09T21:32:24.361Z,85.10
2018-06-09T21:35:04.467Z,85.20
2018-06-09T21:37:40.049Z,85.20
2018-06-09T21:40:13.732Z,85.60
2018-06-09T21:42:49.613Z,86.60
2018-06-09T21:45:24.376Z,87.10
2018-06-09T21:47:52.903Z,87.50
2018-06-09T21:50:21.312Z,87.70
2018-06-09T21:52:49.702Z,88.30
2018-06-09T21:55:18.125Z,89.00
2018-06-09T21:57:46.572Z,89.90
2018-06-09T22:00:15.010Z,90.90
2018-06-09T22:02:43.445Z,91.40
2018-06-09T22:05:11.843Z,92.10
2018-06-09T22:07:40.260Z,92.30
2018-06-09T22:10:08.915Z,92.90
2018-06-09T22:12:37.309Z,93.30
2018-06-09T22:15:05.781Z,94.00
2018-06-09T22:17:34.260Z,94.70
2018-06-09T22:20:02.687Z,95.50
2018-06-09T22:22:31.106Z,96.00
2018-06-09T22:24:59.542Z,96.30
2018-06-09T22:27:27.944Z,96.60
2018-06-09T22:29:56.365Z,96.70
2018-06-09T22:32:24.772Z,97.00
2018-06-09T22:34:53.173Z,97.00
2018-06-09T22:37:21.640Z,97.00
2018-06-09T22:39:50.017Z,97.00
2018-06-09T22:42:18.418Z,97.00
2018-06-09T22:44:46.820Z,97.00
2018-06-09T22:47:15.547Z,97.00
2018-06-09T22:49:43.973Z,97.00
2018-06-09T22:52:12.384Z,97.00
2018-06-09T22:54:40.858Z,97.00
2018-06-09T22:57:09.229Z,97.00
2018-06-09T22:59:37.633Z,97.00
2018-06-09T23:02:06.116Z,97.00
2018-06-09T23:04:34.525Z,97.00
2018-06-09T23:07:02.943Z,97.00
2018-06-09T23:09:31.364Z,97.00
2018-06-09T23:11:59.757Z,97.00
2018-06-09T23:14:28.206Z,97.00
2018-06-09T23:16:56.637Z,97.00
2018-06-09T23:19:25.072Z,97.00
2018-06-09T23:21:53.462Z,97.00
2018-06-09T23:24:21.878Z,97.00
2018-06-09T23:26:50.249Z,97.00
2018-06-09T23:29:18.649Z,97.00
2018-06-09T23:31:47.067Z,97.00
2018-06-09T23:34:15.466Z,97.00
2018-06-09T23:36:43.864Z,97.00
2018-06-09T23:39:12.254Z,97.00
2018-06-09T23:41:40.680Z,97.00
2018-06-09T23:44:09.065Z,97.00
2018-06-09T23:46:37.446Z,97.00
2018-06-09T23:49:05.934Z,97.00
2018-06-09T23:51:34.343Z,97.00
2018-06-09T23:54:02.746Z,97.00
2018-06-09T23:56:31.146Z,97.00
2018-06-09T23:58:59.588Z,97.00
